sensor_id;sensor_type;location;lat;lon;timestamp;P1;durP1;ratioP1;P2;durP2;ratioP2
31282;SDS011;17915;52.540;13.604;2023-07-22T00:01:48;7.60;;;6.93;;
31282;SDS011;17915;52.540;13.604;2023-07-22T00:04:13;7.67;;;7.07;;
31282;SDS011;17915;52.540;13.604;2023-07-22T00:06:38;8.63;;;8.13;;
31282;SDS011;17915;52.540;13.604;2023-07-22T00:09:04;11.10;;;7.60;;
31282;SDS011;17915;52.540;13.604;2023-07-22T00:11:30;7.73;;;7.23;;
31282;SDS011;17915;52.540;13.604;2023-07-22T00:13:55;11.30;;;7.50;;
31282;SDS011;17915;52.540;13.604;2023-07-22T00:16:21;8.53;;;7.77;;
31282;SDS011;17915;52.540;13.604;2023-07-22T00:18:46;8.67;;;7.77;;
31282;SDS011;17915;52.540;13.604;2023-07-22T00:21:12;7.65;;;7.10;;
31282;SDS011;17915;52.540;13.604;2023-07-22T00:23:38;9.40;;;8.57;;
31282;SDS011;17915;52.540;13.604;2023-07-22T00:26:04;7.20;;;6.57;;
31282;SDS011;17915;52.540;13.604;2023-07-22T00:28:29;8.63;;;7.83;;
31282;SDS011;17915;52.540;13.604;2023-07-22T00:30:55;8.30;;;7.50;;
31282;SDS011;17915;52.540;13.604;2023-07-22T00:33:22;8.70;;;7.95;;
31282;SDS011;17915;52.540;13.604;2023-07-22T00:35:48;7.72;;;7.22;;
31282;SDS011;17915;52.540;13.604;2023-07-22T00:38:17;12.52;;;7.68;;
31282;SDS011;17915;52.540;13.604;2023-07-22T00:40:42;8.67;;;7.60;;
31282;SDS011;17915;52.540;13.604;2023-07-22T00:43:08;7.63;;;6.95;;
31282;SDS011;17915;52.540;13.604;2023-07-22T00:45:34;8.37;;;7.70;;
31282;SDS011;17915;52.540;13.604;2023-07-22T00:47:59;8.57;;;7.47;;
31282;SDS011;17915;52.540;13.604;2023-07-22T00:50:25;7.87;;;7.20;;
31282;SDS011;17915;52.540;13.604;2023-07-22T00:52:51;7.70;;;7.10;;
31282;SDS011;17915;52.540;13.604;2023-07-22T00:55:17;8.77;;;7.88;;
31282;SDS011;17915;52.540;13.604;2023-07-22T00:57:43;8.73;;;7.77;;
31282;SDS011;17915;52.540;13.604;2023-07-22T01:00:08;9.13;;;8.23;;
31282;SDS011;17915;52.540;13.604;2023-07-22T01:02:37;8.73;;;7.53;;
31282;SDS011;17915;52.540;13.604;2023-07-22T01:05:03;8.00;;;7.32;;
31282;SDS011;17915;52.540;13.604;2023-07-22T01:07:28;9.27;;;7.53;;
31282;SDS011;17915;52.540;13.604;2023-07-22T01:09:55;7.90;;;7.33;;
31282;SDS011;17915;52.540;13.604;2023-07-22T01:12:21;8.82;;;7.95;;
31282;SDS011;17915;52.540;13.604;2023-07-22T01:14:47;8.27;;;7.57;;
31282;SDS011;17915;52.540;13.604;2023-07-22T01:17:12;10.17;;;8.33;;
31282;SDS011;17915;52.540;13.604;2023-07-22T01:19:38;7.28;;;6.65;;
31282;SDS011;17915;52.540;13.604;2023-07-22T01:22:04;7.57;;;7.07;;
31282;SDS011;17915;52.540;13.604;2023-07-22T01:24:33;7.40;;;6.80;;
31282;SDS011;17915;52.540;13.604;2023-07-22T01:26:59;8.27;;;7.57;;
31282;SDS011;17915;52.540;13.604;2023-07-22T01:29:24;7.37;;;6.87;;
31282;SDS011;17915;52.540;13.604;2023-07-22T01:31:52;8.77;;;8.02;;
31282;SDS011;17915;52.540;13.604;2023-07-22T01:34:19;7.97;;;7.28;;
31282;SDS011;17915;52.540;13.604;2023-07-22T01:36:45;9.27;;;8.35;;
31282;SDS011;17915;52.540;13.604;2023-07-22T01:39:12;8.35;;;7.68;;
31282;SDS011;17915;52.540;13.604;2023-07-22T01:41:38;8.57;;;7.88;;
31282;SDS011;17915;52.540;13.604;2023-07-22T01:44:03;8.77;;;7.80;;
31282;SDS011;17915;52.540;13.604;2023-07-22T01:46:29;8.90;;;6.27;;
31282;SDS011;17915;52.540;13.604;2023-07-22T01:48:57;9.50;;;8.70;;
31282;SDS011;17915;52.540;13.604;2023-07-22T01:51:22;8.50;;;7.80;;
31282;SDS011;17915;52.540;13.604;2023-07-22T01:53:48;9.10;;;6.33;;
31282;SDS011;17915;52.540;13.604;2023-07-22T01:56:14;7.93;;;7.40;;
31282;SDS011;17915;52.540;13.604;2023-07-22T01:58:41;8.52;;;7.57;;
31282;SDS011;17915;52.540;13.604;2023-07-22T02:01:07;7.78;;;7.28;;
31282;SDS011;17915;52.540;13.604;2023-07-22T02:03:32;7.93;;;7.10;;
31282;SDS011;17915;52.540;13.604;2023-07-22T02:06:02;8.53;;;7.50;;
31282;SDS011;17915;52.540;13.604;2023-07-22T02:08:28;8.18;;;7.47;;
31282;SDS011;17915;52.540;13.604;2023-07-22T02:10:53;8.70;;;7.80;;
31282;SDS011;17915;52.540;13.604;2023-07-22T02:13:19;7.47;;;6.70;;
31282;SDS011;17915;52.540;13.604;2023-07-22T02:15:44;8.97;;;8.20;;
31282;SDS011;17915;52.540;13.604;2023-07-22T02:18:09;8.50;;;7.90;;
31282;SDS011;17915;52.540;13.604;2023-07-22T02:20:35;9.63;;;7.60;;
31282;SDS011;17915;52.540;13.604;2023-07-22T02:23:00;8.23;;;7.67;;
31282;SDS011;17915;52.540;13.604;2023-07-22T02:25:26;9.40;;;8.70;;
31282;SDS011;17915;52.540;13.604;2023-07-22T02:27:51;10.57;;;8.17;;
31282;SDS011;17915;52.540;13.604;2023-07-22T02:30:16;9.53;;;8.53;;
31282;SDS011;17915;52.540;13.604;2023-07-22T02:32:42;9.75;;;8.95;;
31282;SDS011;17915;52.540;13.604;2023-07-22T02:35:08;9.63;;;8.37;;
31282;SDS011;17915;52.540;13.604;2023-07-22T02:37:36;8.35;;;7.63;;
31282;SDS011;17915;52.540;13.604;2023-07-22T02:40:02;9.70;;;8.85;;
31282;SDS011;17915;52.540;13.604;2023-07-22T02:42:33;9.43;;;8.55;;
31282;SDS011;17915;52.540;13.604;2023-07-22T02:44:59;8.63;;;7.82;;
31282;SDS011;17915;52.540;13.604;2023-07-22T02:47:25;9.20;;;8.50;;
31282;SDS011;17915;52.540;13.604;2023-07-22T02:49:50;13.17;;;8.33;;
31282;SDS011;17915;52.540;13.604;2023-07-22T02:52:15;7.87;;;7.37;;
31282;SDS011;17915;52.540;13.604;2023-07-22T02:54:41;8.07;;;7.47;;
31282;SDS011;17915;52.540;13.604;2023-07-22T02:57:06;9.03;;;8.23;;
31282;SDS011;17915;52.540;13.604;2023-07-22T02:59:32;24.33;;;9.90;;
31282;SDS011;17915;52.540;13.604;2023-07-22T03:01:58;10.52;;;8.10;;
31282;SDS011;17915;52.540;13.604;2023-07-22T03:04:23;10.53;;;8.57;;
31282;SDS011;17915;52.540;13.604;2023-07-22T03:06:49;8.93;;;8.07;;
31282;SDS011;17915;52.540;13.604;2023-07-22T03:09:14;10.23;;;7.80;;
31282;SDS011;17915;52.540;13.604;2023-07-22T03:11:40;8.23;;;7.63;;
31282;SDS011;17915;52.540;13.604;2023-07-22T03:14:05;8.60;;;7.83;;
31282;SDS011;17915;52.540;13.604;2023-07-22T03:16:30;8.90;;;7.87;;
31282;SDS011;17915;52.540;13.604;2023-07-22T03:18:57;8.68;;;7.07;;
31282;SDS011;17915;52.540;13.604;2023-07-22T03:21:22;13.73;;;7.20;;
31282;SDS011;17915;52.540;13.604;2023-07-22T03:23:48;6.60;;;6.20;;
31282;SDS011;17915;52.540;13.604;2023-07-22T03:26:13;12.03;;;6.93;;
31282;SDS011;17915;52.540;13.604;2023-07-22T03:28:39;9.30;;;7.73;;
31282;SDS011;17915;52.540;13.604;2023-07-22T03:31:06;9.93;;;7.32;;
31282;SDS011;17915;52.540;13.604;2023-07-22T03:33:33;7.72;;;6.07;;
31282;SDS011;17915;52.540;13.604;2023-07-22T03:35:59;6.60;;;6.22;;
31282;SDS011;17915;52.540;13.604;2023-07-22T03:38:25;9.77;;;6.57;;
31282;SDS011;17915;52.540;13.604;2023-07-22T03:40:51;7.13;;;6.53;;
31282;SDS011;17915;52.540;13.604;2023-07-22T03:43:18;8.48;;;6.60;;
31282;SDS011;17915;52.540;13.604;2023-07-22T03:45:43;10.83;;;6.27;;
31282;SDS011;17915;52.540;13.604;2023-07-22T03:48:09;4.80;;;4.57;;
31282;SDS011;17915;52.540;13.604;2023-07-22T03:50:34;5.33;;;4.93;;
31282;SDS011;17915;52.540;13.604;2023-07-22T03:53:00;5.93;;;5.00;;
31282;SDS011;17915;52.540;13.604;2023-07-22T03:55:25;4.73;;;4.53;;
31282;SDS011;17915;52.540;13.604;2023-07-22T03:57:51;5.43;;;5.03;;
31282;SDS011;17915;52.540;13.604;2023-07-22T04:00:16;4.53;;;4.17;;
31282;SDS011;17915;52.540;13.604;2023-07-22T04:02:42;8.70;;;5.50;;
31282;SDS011;17915;52.540;13.604;2023-07-22T04:05:08;4.97;;;4.47;;
31282;SDS011;17915;52.540;13.604;2023-07-22T04:07:33;5.10;;;4.53;;
31282;SDS011;17915;52.540;13.604;2023-07-22T04:09:59;4.17;;;3.97;;
31282;SDS011;17915;52.540;13.604;2023-07-22T04:12:24;4.60;;;4.30;;
31282;SDS011;17915;52.540;13.604;2023-07-22T04:14:49;6.07;;;4.90;;
31282;SDS011;17915;52.540;13.604;2023-07-22T04:17:15;5.30;;;4.70;;
31282;SDS011;17915;52.540;13.604;2023-07-22T04:19:40;4.47;;;4.27;;
31282;SDS011;17915;52.540;13.604;2023-07-22T04:22:07;4.13;;;3.78;;
31282;SDS011;17915;52.540;13.604;2023-07-22T04:24:33;5.47;;;4.07;;
31282;SDS011;17915;52.540;13.604;2023-07-22T04:26:58;10.33;;;4.03;;
31282;SDS011;17915;52.540;13.604;2023-07-22T04:29:24;7.63;;;5.43;;
31282;SDS011;17915;52.540;13.604;2023-07-22T04:31:49;4.80;;;4.40;;
31282;SDS011;17915;52.540;13.604;2023-07-22T04:34:15;4.40;;;3.80;;
31282;SDS011;17915;52.540;13.604;2023-07-22T04:36:40;4.53;;;4.23;;
31282;SDS011;17915;52.540;13.604;2023-07-22T04:39:06;4.80;;;3.53;;
31282;SDS011;17915;52.540;13.604;2023-07-22T04:41:32;3.78;;;3.47;;
31282;SDS011;17915;52.540;13.604;2023-07-22T04:43:58;3.97;;;3.60;;
31282;SDS011;17915;52.540;13.604;2023-07-22T04:46:23;3.90;;;3.63;;
31282;SDS011;17915;52.540;13.604;2023-07-22T04:48:50;5.05;;;3.85;;
31282;SDS011;17915;52.540;13.604;2023-07-22T04:51:16;4.60;;;4.17;;
31282;SDS011;17915;52.540;13.604;2023-07-22T04:53:41;4.13;;;3.90;;
31282;SDS011;17915;52.540;13.604;2023-07-22T04:56:06;4.40;;;3.60;;
31282;SDS011;17915;52.540;13.604;2023-07-22T04:58:32;4.83;;;4.13;;
31282;SDS011;17915;52.540;13.604;2023-07-22T05:00:57;5.27;;;4.57;;
31282;SDS011;17915;52.540;13.604;2023-07-22T05:03:23;5.43;;;4.30;;
31282;SDS011;17915;52.540;13.604;2023-07-22T05:05:51;5.57;;;5.05;;
31282;SDS011;17915;52.540;13.604;2023-07-22T05:08:17;4.82;;;4.43;;
31282;SDS011;17915;52.540;13.604;2023-07-22T05:10:42;8.30;;;5.77;;
31282;SDS011;17915;52.540;13.604;2023-07-22T05:13:08;6.37;;;5.50;;
31282;SDS011;17915;52.540;13.604;2023-07-22T05:15:33;6.10;;;5.30;;
31282;SDS011;17915;52.540;13.604;2023-07-22T05:17:58;9.00;;;5.17;;
31282;SDS011;17915;52.540;13.604;2023-07-22T05:20:24;6.10;;;5.53;;
31282;SDS011;17915;52.540;13.604;2023-07-22T05:22:49;7.23;;;5.50;;
31282;SDS011;17915;52.540;13.604;2023-07-22T05:25:15;5.63;;;4.73;;
31282;SDS011;17915;52.540;13.604;2023-07-22T05:27:40;5.37;;;4.97;;
31282;SDS011;17915;52.540;13.604;2023-07-22T05:30:06;5.60;;;5.22;;
31282;SDS011;17915;52.540;13.604;2023-07-22T05:32:32;6.82;;;5.00;;
31282;SDS011;17915;52.540;13.604;2023-07-22T05:34:57;6.57;;;6.07;;
31282;SDS011;17915;52.540;13.604;2023-07-22T05:37:23;6.20;;;5.80;;
31282;SDS011;17915;52.540;13.604;2023-07-22T05:39:49;7.88;;;7.25;;
31282;SDS011;17915;52.540;13.604;2023-07-22T05:42:14;6.03;;;5.53;;
31282;SDS011;17915;52.540;13.604;2023-07-22T05:44:40;6.93;;;6.33;;
31282;SDS011;17915;52.540;13.604;2023-07-22T05:47:05;7.93;;;7.23;;
31282;SDS011;17915;52.540;13.604;2023-07-22T05:49:30;7.17;;;6.63;;
31282;SDS011;17915;52.540;13.604;2023-07-22T05:51:56;7.20;;;6.40;;
31282;SDS011;17915;52.540;13.604;2023-07-22T05:54:21;8.90;;;7.23;;
31282;SDS011;17915;52.540;13.604;2023-07-22T05:56:47;8.17;;;7.40;;
31282;SDS011;17915;52.540;13.604;2023-07-22T05:59:12;9.67;;;8.50;;
31282;SDS011;17915;52.540;13.604;2023-07-22T06:01:38;9.80;;;8.47;;
31282;SDS011;17915;52.540;13.604;2023-07-22T06:04:03;8.30;;;7.37;;
31282;SDS011;17915;52.540;13.604;2023-07-22T06:06:29;10.07;;;9.15;;
31282;SDS011;17915;52.540;13.604;2023-07-22T06:08:54;12.87;;;9.37;;
31282;SDS011;17915;52.540;13.604;2023-07-22T06:11:20;9.97;;;8.97;;
31282;SDS011;17915;52.540;13.604;2023-07-22T06:13:46;11.57;;;10.52;;
31282;SDS011;17915;52.540;13.604;2023-07-22T06:16:11;15.07;;;11.60;;
31282;SDS011;17915;52.540;13.604;2023-07-22T06:18:37;14.00;;;10.73;;
31282;SDS011;17915;52.540;13.604;2023-07-22T06:21:02;12.63;;;11.47;;
31282;SDS011;17915;52.540;13.604;2023-07-22T06:23:28;10.77;;;9.80;;
31282;SDS011;17915;52.540;13.604;2023-07-22T06:25:53;11.17;;;10.27;;
31282;SDS011;17915;52.540;13.604;2023-07-22T06:28:18;12.40;;;10.73;;
31282;SDS011;17915;52.540;13.604;2023-07-22T06:30:44;11.03;;;9.87;;
31282;SDS011;17915;52.540;13.604;2023-07-22T06:33:09;12.73;;;9.57;;
31282;SDS011;17915;52.540;13.604;2023-07-22T06:35:34;14.30;;;10.50;;
31282;SDS011;17915;52.540;13.604;2023-07-22T06:38:00;12.20;;;10.43;;
31282;SDS011;17915;52.540;13.604;2023-07-22T06:40:25;14.33;;;8.80;;
31282;SDS011;17915;52.540;13.604;2023-07-22T06:42:51;9.20;;;8.60;;
31282;SDS011;17915;52.540;13.604;2023-07-22T06:45:17;10.23;;;9.17;;
31282;SDS011;17915;52.540;13.604;2023-07-22T06:47:42;16.02;;;9.35;;
31282;SDS011;17915;52.540;13.604;2023-07-22T06:50:09;9.85;;;8.98;;
31282;SDS011;17915;52.540;13.604;2023-07-22T06:52:34;20.45;;;9.32;;
31282;SDS011;17915;52.540;13.604;2023-07-22T06:55:00;10.40;;;9.47;;
31282;SDS011;17915;52.540;13.604;2023-07-22T06:57:25;11.57;;;8.23;;
31282;SDS011;17915;52.540;13.604;2023-07-22T06:59:53;9.43;;;8.73;;
31282;SDS011;17915;52.540;13.604;2023-07-22T07:02:19;12.70;;;8.30;;
31282;SDS011;17915;52.540;13.604;2023-07-22T07:04:44;8.53;;;7.93;;
31282;SDS011;17915;52.540;13.604;2023-07-22T07:07:10;8.37;;;7.40;;
31282;SDS011;17915;52.540;13.604;2023-07-22T07:09:37;9.18;;;7.30;;
31282;SDS011;17915;52.540;13.604;2023-07-22T07:12:03;9.57;;;7.83;;
31282;SDS011;17915;52.540;13.604;2023-07-22T07:14:28;8.73;;;6.80;;
31282;SDS011;17915;52.540;13.604;2023-07-22T07:16:54;12.63;;;7.97;;
31282;SDS011;17915;52.540;13.604;2023-07-22T07:19:19;7.60;;;6.67;;
31282;SDS011;17915;52.540;13.604;2023-07-22T07:21:45;8.27;;;7.05;;
31282;SDS011;17915;52.540;13.604;2023-07-22T07:24:10;7.40;;;6.63;;
31282;SDS011;17915;52.540;13.604;2023-07-22T07:26:35;8.37;;;7.50;;
31282;SDS011;17915;52.540;13.604;2023-07-22T07:29:01;11.67;;;7.10;;
31282;SDS011;17915;52.540;13.604;2023-07-22T07:31:26;9.30;;;6.33;;
31282;SDS011;17915;52.540;13.604;2023-07-22T07:33:52;12.63;;;6.13;;
31282;SDS011;17915;52.540;13.604;2023-07-22T07:36:17;8.50;;;5.47;;
31282;SDS011;17915;52.540;13.604;2023-07-22T07:38:43;9.60;;;5.97;;
31282;SDS011;17915;52.540;13.604;2023-07-22T07:41:09;11.17;;;5.90;;
31282;SDS011;17915;52.540;13.604;2023-07-22T07:43:36;7.97;;;5.53;;
31282;SDS011;17915;52.540;13.604;2023-07-22T07:49:00;7.40;;;5.53;;
31282;SDS011;17915;52.540;13.604;2023-07-22T07:51:26;9.27;;;6.53;;
31282;SDS011;17915;52.540;13.604;2023-07-22T07:53:53;10.45;;;5.82;;
31282;SDS011;17915;52.540;13.604;2023-07-22T07:56:19;7.32;;;6.18;;
31282;SDS011;17915;52.540;13.604;2023-07-22T07:58:45;7.88;;;5.90;;
31282;SDS011;17915;52.540;13.604;2023-07-22T08:03:37;5.72;;;5.30;;
31282;SDS011;17915;52.540;13.604;2023-07-22T08:06:03;7.88;;;5.88;;
31282;SDS011;17915;52.540;13.604;2023-07-22T08:08:29;10.50;;;6.93;;
31282;SDS011;17915;52.540;13.604;2023-07-22T08:11:14;11.60;;;6.57;;
31282;SDS011;17915;52.540;13.604;2023-07-22T08:13:39;7.68;;;6.85;;
31282;SDS011;17915;52.540;13.604;2023-07-22T08:16:05;9.00;;;7.47;;
31282;SDS011;17915;52.540;13.604;2023-07-22T08:18:32;12.07;;;7.05;;
31282;SDS011;17915;52.540;13.604;2023-07-22T08:20:58;10.30;;;7.10;;
31282;SDS011;17915;52.540;13.604;2023-07-22T08:23:23;12.85;;;6.82;;
31282;SDS011;17915;52.540;13.604;2023-07-22T08:25:49;8.57;;;7.40;;
31282;SDS011;17915;52.540;13.604;2023-07-22T08:28:15;11.85;;;6.53;;
31282;SDS011;17915;52.540;13.604;2023-07-22T08:30:41;13.35;;;6.82;;
31282;SDS011;17915;52.540;13.604;2023-07-22T08:35:34;8.05;;;6.50;;
31282;SDS011;17915;52.540;13.604;2023-07-22T08:38:00;7.30;;;6.78;;
31282;SDS011;17915;52.540;13.604;2023-07-22T08:40:27;6.55;;;6.03;;
31282;SDS011;17915;52.540;13.604;2023-07-22T08:42:52;12.73;;;6.63;;
31282;SDS011;17915;52.540;13.604;2023-07-22T08:45:18;7.93;;;6.80;;
31282;SDS011;17915;52.540;13.604;2023-07-22T08:50:10;12.10;;;7.10;;
31282;SDS011;17915;52.540;13.604;2023-07-22T08:52:36;7.40;;;6.80;;
31282;SDS011;17915;52.540;13.604;2023-07-22T08:55:02;7.90;;;7.20;;
31282;SDS011;17915;52.540;13.604;2023-07-22T08:57:29;13.23;;;7.10;;
31282;SDS011;17915;52.540;13.604;2023-07-22T08:59:54;11.43;;;7.65;;
31282;SDS011;17915;52.540;13.604;2023-07-22T09:02:21;8.15;;;7.45;;
31282;SDS011;17915;52.540;13.604;2023-07-22T09:04:47;7.47;;;6.50;;
31282;SDS011;17915;52.540;13.604;2023-07-22T09:07:12;7.13;;;6.50;;
31282;SDS011;17915;52.540;13.604;2023-07-22T09:09:40;9.75;;;6.90;;
31282;SDS011;17915;52.540;13.604;2023-07-22T09:12:06;10.32;;;7.15;;
31282;SDS011;17915;52.540;13.604;2023-07-22T09:14:32;9.43;;;6.80;;
31282;SDS011;17915;52.540;13.604;2023-07-22T09:16:59;14.30;;;7.60;;
31282;SDS011;17915;52.540;13.604;2023-07-22T09:19:24;6.70;;;6.07;;
31282;SDS011;17915;52.540;13.604;2023-07-22T09:21:50;8.55;;;6.28;;
31282;SDS011;17915;52.540;13.604;2023-07-22T09:24:22;12.17;;;6.70;;
31282;SDS011;17915;52.540;13.604;2023-07-22T09:26:49;12.00;;;7.45;;
31282;SDS011;17915;52.540;13.604;2023-07-22T09:29:15;8.13;;;6.63;;
31282;SDS011;17915;52.540;13.604;2023-07-22T09:31:50;7.27;;;6.13;;
31282;SDS011;17915;52.540;13.604;2023-07-22T09:34:16;7.72;;;6.40;;
31282;SDS011;17915;52.540;13.604;2023-07-22T09:36:58;11.53;;;7.00;;
31282;SDS011;17915;52.540;13.604;2023-07-22T09:39:30;8.15;;;7.18;;
31282;SDS011;17915;52.540;13.604;2023-07-22T09:41:55;8.50;;;6.60;;
31282;SDS011;17915;52.540;13.604;2023-07-22T09:44:21;12.02;;;7.25;;
31282;SDS011;17915;52.540;13.604;2023-07-22T09:49:14;7.70;;;6.78;;
31282;SDS011;17915;52.540;13.604;2023-07-22T09:51:41;11.30;;;6.70;;
31282;SDS011;17915;52.540;13.604;2023-07-22T09:54:07;8.40;;;5.70;;
31282;SDS011;17915;52.540;13.604;2023-07-22T09:56:33;14.85;;;5.60;;
31282;SDS011;17915;52.540;13.604;2023-07-22T09:59:08;11.73;;;5.90;;
31282;SDS011;17915;52.540;13.604;2023-07-22T10:01:34;16.95;;;8.20;;
31282;SDS011;17915;52.540;13.604;2023-07-22T10:04:00;6.13;;;5.57;;
31282;SDS011;17915;52.540;13.604;2023-07-22T10:06:27;10.27;;;7.05;;
31282;SDS011;17915;52.540;13.604;2023-07-22T10:08:56;11.50;;;7.07;;
31282;SDS011;17915;52.540;13.604;2023-07-22T10:11:22;26.98;;;16.50;;
31282;SDS011;17915;52.540;13.604;2023-07-22T10:13:50;19.65;;;11.50;;
31282;SDS011;17915;52.540;13.604;2023-07-22T10:16:17;6.45;;;5.20;;
31282;SDS011;17915;52.540;13.604;2023-07-22T10:18:43;10.60;;;5.97;;
31282;SDS011;17915;52.540;13.604;2023-07-22T10:21:10;7.20;;;6.57;;
31282;SDS011;17915;52.540;13.604;2023-07-22T10:23:35;5.73;;;5.07;;
31282;SDS011;17915;52.540;13.604;2023-07-22T10:26:01;6.35;;;4.97;;
31282;SDS011;17915;52.540;13.604;2023-07-22T10:28:28;10.18;;;5.30;;
31282;SDS011;17915;52.540;13.604;2023-07-22T10:30:54;4.93;;;4.50;;
31282;SDS011;17915;52.540;13.604;2023-07-22T10:33:21;11.13;;;4.93;;
31282;SDS011;17915;52.540;13.604;2023-07-22T10:38:32;8.65;;;5.70;;
31282;SDS011;17915;52.540;13.604;2023-07-22T10:40:57;5.50;;;5.00;;
31282;SDS011;17915;52.540;13.604;2023-07-22T10:43:32;4.70;;;4.32;;
31282;SDS011;17915;52.540;13.604;2023-07-22T10:46:05;7.03;;;3.97;;
31282;SDS011;17915;52.540;13.604;2023-07-22T10:48:35;5.43;;;4.93;;
31282;SDS011;17915;52.540;13.604;2023-07-22T10:51:12;6.10;;;4.50;;
31282;SDS011;17915;52.540;13.604;2023-07-22T10:53:40;6.60;;;4.68;;
31282;SDS011;17915;52.540;13.604;2023-07-22T11:06:28;5.78;;;5.13;;
31282;SDS011;17915;52.540;13.604;2023-07-22T11:08:55;5.35;;;4.95;;
31282;SDS011;17915;52.540;13.604;2023-07-22T11:11:20;7.40;;;5.15;;
31282;SDS011;17915;52.540;13.604;2023-07-22T11:13:46;5.63;;;5.10;;
31282;SDS011;17915;52.540;13.604;2023-07-22T11:16:11;4.90;;;4.13;;
31282;SDS011;17915;52.540;13.604;2023-07-22T11:18:40;5.00;;;4.60;;
31282;SDS011;17915;52.540;13.604;2023-07-22T11:21:07;5.65;;;5.15;;
31282;SDS011;17915;52.540;13.604;2023-07-22T11:23:34;13.75;;;5.35;;
31282;SDS011;17915;52.540;13.604;2023-07-22T11:26:00;9.77;;;5.55;;
31282;SDS011;17915;52.540;13.604;2023-07-22T11:30:52;12.05;;;6.25;;
31282;SDS011;17915;52.540;13.604;2023-07-22T11:33:18;6.18;;;5.70;;
31282;SDS011;17915;52.540;13.604;2023-07-22T11:35:43;6.93;;;6.17;;
31282;SDS011;17915;52.540;13.604;2023-07-22T11:38:11;8.40;;;5.97;;
31282;SDS011;17915;52.540;13.604;2023-07-22T11:40:37;6.28;;;5.72;;
31282;SDS011;17915;52.540;13.604;2023-07-22T11:43:02;7.27;;;6.33;;
31282;SDS011;17915;52.540;13.604;2023-07-22T11:45:28;6.50;;;5.47;;
31282;SDS011;17915;52.540;13.604;2023-07-22T11:47:53;7.03;;;6.33;;
31282;SDS011;17915;52.540;13.604;2023-07-22T11:50:19;7.43;;;6.00;;
31282;SDS011;17915;52.540;13.604;2023-07-22T11:52:57;7.10;;;5.00;;
31282;SDS011;17915;52.540;13.604;2023-07-22T11:55:23;7.07;;;5.38;;
31282;SDS011;17915;52.540;13.604;2023-07-22T12:00:20;7.32;;;6.65;;
31282;SDS011;17915;52.540;13.604;2023-07-22T12:02:46;7.15;;;6.45;;
31282;SDS011;17915;52.540;13.604;2023-07-22T12:05:12;7.63;;;6.63;;
31282;SDS011;17915;52.540;13.604;2023-07-22T12:07:44;6.00;;;5.60;;
31282;SDS011;17915;52.540;13.604;2023-07-22T12:10:10;6.60;;;5.80;;
31282;SDS011;17915;52.540;13.604;2023-07-22T12:12:40;7.80;;;6.00;;
31282;SDS011;17915;52.540;13.604;2023-07-22T12:17:47;7.18;;;5.80;;
31282;SDS011;17915;52.540;13.604;2023-07-22T12:20:23;6.47;;;5.88;;
31282;SDS011;17915;52.540;13.604;2023-07-22T12:22:49;7.47;;;6.00;;
31282;SDS011;17915;52.540;13.604;2023-07-22T12:25:14;6.93;;;6.37;;
31282;SDS011;17915;52.540;13.604;2023-07-22T12:27:40;9.07;;;6.57;;
31282;SDS011;17915;52.540;13.604;2023-07-22T12:30:05;11.23;;;6.17;;
31282;SDS011;17915;52.540;13.604;2023-07-22T12:32:32;6.18;;;5.50;;
31282;SDS011;17915;52.540;13.604;2023-07-22T12:34:58;6.20;;;5.57;;
31282;SDS011;17915;52.540;13.604;2023-07-22T12:37:23;6.95;;;6.35;;
31282;SDS011;17915;52.540;13.604;2023-07-22T12:39:50;6.78;;;5.80;;
31282;SDS011;17915;52.540;13.604;2023-07-22T12:42:16;6.27;;;5.70;;
31282;SDS011;17915;52.540;13.604;2023-07-22T12:44:41;7.07;;;6.57;;
31282;SDS011;17915;52.540;13.604;2023-07-22T12:47:06;6.63;;;6.10;;
31282;SDS011;17915;52.540;13.604;2023-07-22T12:49:32;7.03;;;6.43;;
31282;SDS011;17915;52.540;13.604;2023-07-22T12:51:58;6.00;;;5.40;;
31282;SDS011;17915;52.540;13.604;2023-07-22T12:54:28;7.10;;;6.50;;
31282;SDS011;17915;52.540;13.604;2023-07-22T12:56:54;6.30;;;5.80;;
31282;SDS011;17915;52.540;13.604;2023-07-22T12:59:20;6.13;;;5.60;;
31282;SDS011;17915;52.540;13.604;2023-07-22T13:01:45;6.30;;;5.80;;
31282;SDS011;17915;52.540;13.604;2023-07-22T13:04:10;7.80;;;6.47;;
31282;SDS011;17915;52.540;13.604;2023-07-22T13:06:36;11.33;;;6.97;;
31282;SDS011;17915;52.540;13.604;2023-07-22T13:09:03;6.53;;;5.95;;
31282;SDS011;17915;52.540;13.604;2023-07-22T13:11:28;9.23;;;5.65;;
31282;SDS011;17915;52.540;13.604;2023-07-22T13:13:54;8.77;;;5.77;;
31282;SDS011;17915;52.540;13.604;2023-07-22T13:16:19;7.90;;;6.23;;
31282;SDS011;17915;52.540;13.604;2023-07-22T13:18:44;14.20;;;6.43;;
31282;SDS011;17915;52.540;13.604;2023-07-22T13:21:10;6.57;;;5.97;;
31282;SDS011;17915;52.540;13.604;2023-07-22T13:23:35;7.10;;;6.60;;
31282;SDS011;17915;52.540;13.604;2023-07-22T13:26:00;8.70;;;6.70;;
31282;SDS011;17915;52.540;13.604;2023-07-22T13:28:26;7.70;;;6.33;;
31282;SDS011;17915;52.540;13.604;2023-07-22T13:30:51;6.37;;;5.90;;
31282;SDS011;17915;52.540;13.604;2023-07-22T13:33:16;6.37;;;5.97;;
31282;SDS011;17915;52.540;13.604;2023-07-22T13:35:43;7.13;;;6.60;;
31282;SDS011;17915;52.540;13.604;2023-07-22T13:38:09;8.40;;;6.53;;
31282;SDS011;17915;52.540;13.604;2023-07-22T13:40:34;6.43;;;5.93;;
31282;SDS011;17915;52.540;13.604;2023-07-22T13:42:59;7.23;;;6.63;;
31282;SDS011;17915;52.540;13.604;2023-07-22T13:45:25;7.27;;;6.67;;
31282;SDS011;17915;52.540;13.604;2023-07-22T13:47:51;8.25;;;6.40;;
31282;SDS011;17915;52.540;13.604;2023-07-22T13:50:17;6.07;;;5.57;;
31282;SDS011;17915;52.540;13.604;2023-07-22T13:52:42;11.03;;;5.63;;
31282;SDS011;17915;52.540;13.604;2023-07-22T13:57:34;6.90;;;6.40;;
31282;SDS011;17915;52.540;13.604;2023-07-22T13:59:59;6.73;;;6.30;;
31282;SDS011;17915;52.540;13.604;2023-07-22T14:02:24;6.47;;;5.67;;
31282;SDS011;17915;52.540;13.604;2023-07-22T14:04:50;6.73;;;6.10;;
31282;SDS011;17915;52.540;13.604;2023-07-22T14:07:15;7.07;;;6.47;;
31282;SDS011;17915;52.540;13.604;2023-07-22T14:09:42;7.20;;;6.53;;
31282;SDS011;17915;52.540;13.604;2023-07-22T14:12:08;7.32;;;6.68;;
31282;SDS011;17915;52.540;13.604;2023-07-22T14:14:33;7.80;;;7.03;;
31282;SDS011;17915;52.540;13.604;2023-07-22T14:16:59;7.57;;;6.67;;
31282;SDS011;17915;52.540;13.604;2023-07-22T14:19:24;10.03;;;6.77;;
31282;SDS011;17915;52.540;13.604;2023-07-22T14:21:49;7.63;;;6.73;;
31282;SDS011;17915;52.540;13.604;2023-07-22T14:24:15;6.70;;;6.10;;
31282;SDS011;17915;52.540;13.604;2023-07-22T14:26:40;8.17;;;6.63;;
31282;SDS011;17915;52.540;13.604;2023-07-22T14:29:06;6.87;;;6.20;;
31282;SDS011;17915;52.540;13.604;2023-07-22T14:31:31;6.93;;;6.03;;
31282;SDS011;17915;52.540;13.604;2023-07-22T14:33:56;6.97;;;6.27;;
31282;SDS011;17915;52.540;13.604;2023-07-22T14:36:22;6.47;;;5.93;;
31282;SDS011;17915;52.540;13.604;2023-07-22T14:38:47;9.97;;;6.80;;
31282;SDS011;17915;52.540;13.604;2023-07-22T14:41:13;6.77;;;6.27;;
31282;SDS011;17915;52.540;13.604;2023-07-22T14:43:38;8.10;;;5.43;;
31282;SDS011;17915;52.540;13.604;2023-07-22T14:46:04;6.30;;;5.80;;
31282;SDS011;17915;52.540;13.604;2023-07-22T14:48:29;7.27;;;6.67;;
31282;SDS011;17915;52.540;13.604;2023-07-22T14:50:55;6.43;;;5.93;;
31282;SDS011;17915;52.540;13.604;2023-07-22T14:53:20;6.93;;;6.32;;
31282;SDS011;17915;52.540;13.604;2023-07-22T14:55:45;7.97;;;7.23;;
31282;SDS011;17915;52.540;13.604;2023-07-22T14:58:11;7.43;;;5.83;;
31282;SDS011;17915;52.540;13.604;2023-07-22T15:00:36;6.87;;;6.37;;